sensor_id;sensor_type;location;lat;lon;timestamp;temperature;humidity
31725;DHT22;18306;40.960;14.836;2023-03-01T00:00:09;12.70;99.90
31725;DHT22;18306;40.960;14.836;2023-03-01T00:02:41;12.80;99.90
31725;DHT22;18306;40.960;14.836;2023-03-01T00:05:12;12.60;99.90
31725;DHT22;18306;40.960;14.836;2023-03-01T00:07:40;12.50;99.90
31725;DHT22;18306;40.960;14.836;2023-03-01T00:10:07;12.60;99.90
31725;DHT22;18306;40.960;14.836;2023-03-01T00:12:35;12.70;99.90
31725;DHT22;18306;40.960;14.836;2023-03-01T00:15:03;12.90;99.90
31725;DHT22;18306;40.960;14.836;2023-03-01T00:17:31;13.20;99.90
31725;DHT22;18306;40.960;14.836;2023-03-01T00:20:02;13.30;99.90
31725;DHT22;18306;40.960;14.836;2023-03-01T00:22:29;13.50;99.90
31725;DHT22;18306;40.960;14.836;2023-03-01T00:24:56;13.20;99.90
31725;DHT22;18306;40.960;14.836;2023-03-01T00:27:24;13.50;99.90
31725;DHT22;18306;40.960;14.836;2023-03-01T00:29:52;13.60;99.90
31725;DHT22;18306;40.960;14.836;2023-03-01T00:32:20;13.60;99.90
31725;DHT22;18306;40.960;14.836;2023-03-01T00:34:47;13.70;99.90
31725;DHT22;18306;40.960;14.836;2023-03-01T00:37:23;13.80;99.90
31725;DHT22;18306;40.960;14.836;2023-03-01T00:39:51;13.80;99.90
31725;DHT22;18306;40.960;14.836;2023-03-01T00:42:21;13.80;99.90
31725;DHT22;18306;40.960;14.836;2023-03-01T00:44:51;13.90;99.90
31725;DHT22;18306;40.960;14.836;2023-03-01T00:47:19;13.80;99.90
31725;DHT22;18306;40.960;14.836;2023-03-01T00:49:47;13.70;99.90
31725;DHT22;18306;40.960;14.836;2023-03-01T00:52:14;13.50;99.90
31725;DHT22;18306;40.960;14.836;2023-03-01T00:54:42;13.20;99.90
31725;DHT22;18306;40.960;14.836;2023-03-01T00:57:09;13.20;99.90
31725;DHT22;18306;40.960;14.836;2023-03-01T00:59:36;13.20;99.90
31725;DHT22;18306;40.960;14.836;2023-03-01T01:02:04;13.20;99.90
31725;DHT22;18306;40.960;14.836;2023-03-01T01:04:31;13.30;99.90
31725;DHT22;18306;40.960;14.836;2023-03-01T01:06:58;13.50;99.90
31725;DHT22;18306;40.960;14.836;2023-03-01T01:09:25;13.50;99.90
31725;DHT22;18306;40.960;14.836;2023-03-01T01:11:53;13.50;99.90
31725;DHT22;18306;40.960;14.836;2023-03-01T01:14:21;13.40;99.90
31725;DHT22;18306;40.960;14.836;2023-03-01T01:16:49;13.40;99.90
31725;DHT22;18306;40.960;14.836;2023-03-01T01:19:16;13.40;99.90
31725;DHT22;18306;40.960;14.836;2023-03-01T01:21:43;13.50;99.90
31725;DHT22;18306;40.960;14.836;2023-03-01T01:24:12;13.40;99.90
31725;DHT22;18306;40.960;14.836;2023-03-01T01:26:40;13.40;99.90
31725;DHT22;18306;40.960;14.836;2023-03-01T01:29:16;13.40;99.90
31725;DHT22;18306;40.960;14.836;2023-03-01T01:31:44;13.30;99.90
31725;DHT22;18306;40.960;14.836;2023-03-01T01:34:19;13.30;99.90
31725;DHT22;18306;40.960;14.836;2023-03-01T01:36:52;13.40;99.90
31725;DHT22;18306;40.960;14.836;2023-03-01T01:39:23;13.40;99.90
31725;DHT22;18306;40.960;14.836;2023-03-01T01:41:50;13.40;99.90
31725;DHT22;18306;40.960;14.836;2023-03-01T01:44:24;13.40;99.90
31725;DHT22;18306;40.960;14.836;2023-03-01T01:47:30;13.40;99.90
31725;DHT22;18306;40.960;14.836;2023-03-01T01:50:01;13.40;99.90
31725;DHT22;18306;40.960;14.836;2023-03-01T01:52:34;13.40;99.90
31725;DHT22;18306;40.960;14.836;2023-03-01T01:55:07;13.20;99.90
31725;DHT22;18306;40.960;14.836;2023-03-01T01:57:45;13.10;99.90
31725;DHT22;18306;40.960;14.836;2023-03-01T02:00:20;13.00;99.90
31725;DHT22;18306;40.960;14.836;2023-03-01T02:02:50;12.90;99.90
31725;DHT22;18306;40.960;14.836;2023-03-01T02:05:38;12.70;99.90
31725;DHT22;18306;40.960;14.836;2023-03-01T02:08:08;12.70;99.90
31725;DHT22;18306;40.960;14.836;2023-03-01T02:10:38;12.60;99.90
31725;DHT22;18306;40.960;14.836;2023-03-01T02:13:06;12.50;99.90
31725;DHT22;18306;40.960;14.836;2023-03-01T02:15:36;12.40;99.90
31725;DHT22;18306;40.960;14.836;2023-03-01T02:18:07;12.40;99.90
31725;DHT22;18306;40.960;14.836;2023-03-01T02:23:32;12.40;99.90
31725;DHT22;18306;40.960;14.836;2023-03-01T02:26:23;12.40;99.90
31725;DHT22;18306;40.960;14.836;2023-03-01T02:28:55;12.40;99.90
31725;DHT22;18306;40.960;14.836;2023-03-01T02:31:22;12.30;99.90
31725;DHT22;18306;40.960;14.836;2023-03-01T02:34:11;12.30;99.90
31725;DHT22;18306;40.960;14.836;2023-03-01T02:36:54;12.30;99.90
31725;DHT22;18306;40.960;14.836;2023-03-01T02:39:48;12.00;99.90
31725;DHT22;18306;40.960;14.836;2023-03-01T02:42:22;12.40;99.90
31725;DHT22;18306;40.960;14.836;2023-03-01T02:44:50;12.40;99.90
31725;DHT22;18306;40.960;14.836;2023-03-01T02:47:18;12.40;99.90
31725;DHT22;18306;40.960;14.836;2023-03-01T02:49:54;12.30;99.90
31725;DHT22;18306;40.960;14.836;2023-03-01T02:52:37;12.40;99.90
31725;DHT22;18306;40.960;14.836;2023-03-01T02:55:14;12.40;99.90
31725;DHT22;18306;40.960;14.836;2023-03-01T02:57:45;12.60;99.90
31725;DHT22;18306;40.960;14.836;2023-03-01T03:00:19;12.70;99.90
31725;DHT22;18306;40.960;14.836;2023-03-01T03:02:49;12.60;99.90
31725;DHT22;18306;40.960;14.836;2023-03-01T03:05:22;12.50;99.90
31725;DHT22;18306;40.960;14.836;2023-03-01T03:07:53;12.50;99.90
31725;DHT22;18306;40.960;14.836;2023-03-01T03:10:24;12.50;99.90
31725;DHT22;18306;40.960;14.836;2023-03-01T03:12:54;12.30;99.90
31725;DHT22;18306;40.960;14.836;2023-03-01T03:15:22;12.20;99.90
31725;DHT22;18306;40.960;14.836;2023-03-01T03:17:50;12.20;99.90
31725;DHT22;18306;40.960;14.836;2023-03-01T03:20:20;12.00;99.90
31725;DHT22;18306;40.960;14.836;2023-03-01T03:22:50;12.00;99.90
31725;DHT22;18306;40.960;14.836;2023-03-01T03:25:18;11.80;99.90
31725;DHT22;18306;40.960;14.836;2023-03-01T03:27:48;11.80;99.90
31725;DHT22;18306;40.960;14.836;2023-03-01T03:30:17;11.60;99.90
31725;DHT22;18306;40.960;14.836;2023-03-01T03:32:47;11.60;99.90
31725;DHT22;18306;40.960;14.836;2023-03-01T03:35:31;11.30;99.90
31725;DHT22;18306;40.960;14.836;2023-03-01T03:38:03;11.00;99.90
31725;DHT22;18306;40.960;14.836;2023-03-01T03:40:40;11.20;99.90
31725;DHT22;18306;40.960;14.836;2023-03-01T03:43:10;11.40;99.90
31725;DHT22;18306;40.960;14.836;2023-03-01T03:45:38;11.50;99.90
31725;DHT22;18306;40.960;14.836;2023-03-01T03:48:08;11.60;99.90
31725;DHT22;18306;40.960;14.836;2023-03-01T03:50:38;11.70;99.90
31725;DHT22;18306;40.960;14.836;2023-03-01T03:53:11;11.80;99.90
31725;DHT22;18306;40.960;14.836;2023-03-01T03:55:38;11.80;99.90
31725;DHT22;18306;40.960;14.836;2023-03-01T03:58:10;11.80;99.90
31725;DHT22;18306;40.960;14.836;2023-03-01T04:00:40;11.70;99.90
31725;DHT22;18306;40.960;14.836;2023-03-01T04:03:10;11.60;99.90
31725;DHT22;18306;40.960;14.836;2023-03-01T04:05:39;11.50;99.90
31725;DHT22;18306;40.960;14.836;2023-03-01T04:08:08;11.40;99.90
31725;DHT22;18306;40.960;14.836;2023-03-01T04:10:40;11.30;99.90
31725;DHT22;18306;40.960;14.836;2023-03-01T04:13:11;11.10;99.90
31725;DHT22;18306;40.960;14.836;2023-03-01T04:15:39;10.90;99.90
31725;DHT22;18306;40.960;14.836;2023-03-01T04:18:07;10.60;99.90
31725;DHT22;18306;40.960;14.836;2023-03-01T04:20:35;10.40;99.90
31725;DHT22;18306;40.960;14.836;2023-03-01T04:23:11;10.40;99.90
31725;DHT22;18306;40.960;14.836;2023-03-01T04:25:52;10.40;99.90
31725;DHT22;18306;40.960;14.836;2023-03-01T04:28:32;10.40;99.90
31725;DHT22;18306;40.960;14.836;2023-03-01T04:31:05;10.30;99.90
31725;DHT22;18306;40.960;14.836;2023-03-01T04:33:41;10.40;99.90
31725;DHT22;18306;40.960;14.836;2023-03-01T04:36:09;10.50;99.90
31725;DHT22;18306;40.960;14.836;2023-03-01T04:38:37;10.40;99.90
31725;DHT22;18306;40.960;14.836;2023-03-01T04:41:07;10.10;99.90
31725;DHT22;18306;40.960;14.836;2023-03-01T04:43:35;10.00;99.90
31725;DHT22;18306;40.960;14.836;2023-03-01T04:46:08;10.00;99.90
31725;DHT22;18306;40.960;14.836;2023-03-01T04:48:37;10.00;99.90
31725;DHT22;18306;40.960;14.836;2023-03-01T04:51:05;10.00;99.90
31725;DHT22;18306;40.960;14.836;2023-03-01T04:53:33;10.10;99.90
31725;DHT22;18306;40.960;14.836;2023-03-01T04:56:00;9.90;99.90
31725;DHT22;18306;40.960;14.836;2023-03-01T04:58:28;9.80;99.90
31725;DHT22;18306;40.960;14.836;2023-03-01T05:00:55;9.70;99.90
31725;DHT22;18306;40.960;14.836;2023-03-01T05:03:23;8.60;99.90
31725;DHT22;18306;40.960;14.836;2023-03-01T05:05:52;9.50;99.90
31725;DHT22;18306;40.960;14.836;2023-03-01T05:08:19;9.40;99.90
31725;DHT22;18306;40.960;14.836;2023-03-01T05:10:54;9.40;99.90
31725;DHT22;18306;40.960;14.836;2023-03-01T05:13:32;9.50;99.90
31725;DHT22;18306;40.960;14.836;2023-03-01T05:16:13;9.40;99.90
31725;DHT22;18306;40.960;14.836;2023-03-01T05:18:50;9.40;99.90
31725;DHT22;18306;40.960;14.836;2023-03-01T05:21:27;9.50;99.90
31725;DHT22;18306;40.960;14.836;2023-03-01T05:23:58;10.10;99.90
31725;DHT22;18306;40.960;14.836;2023-03-01T05:26:25;9.70;99.90
31725;DHT22;18306;40.960;14.836;2023-03-01T05:29:01;9.70;99.90
31725;DHT22;18306;40.960;14.836;2023-03-01T05:31:29;9.60;99.90
31725;DHT22;18306;40.960;14.836;2023-03-01T05:33:57;10.00;99.90
31725;DHT22;18306;40.960;14.836;2023-03-01T05:36:24;9.90;99.90
31725;DHT22;18306;40.960;14.836;2023-03-01T05:38:52;9.70;99.90
31725;DHT22;18306;40.960;14.836;2023-03-01T05:41:20;9.30;99.90
31725;DHT22;18306;40.960;14.836;2023-03-01T05:43:48;9.00;99.90
31725;DHT22;18306;40.960;14.836;2023-03-01T05:46:15;8.90;99.90
31725;DHT22;18306;40.960;14.836;2023-03-01T05:48:42;8.90;99.90
31725;DHT22;18306;40.960;14.836;2023-03-01T05:51:14;8.90;99.90
31725;DHT22;18306;40.960;14.836;2023-03-01T05:53:41;9.10;99.90
31725;DHT22;18306;40.960;14.836;2023-03-01T05:56:08;8.90;99.90
31725;DHT22;18306;40.960;14.836;2023-03-01T05:58:35;8.80;99.90
31725;DHT22;18306;40.960;14.836;2023-03-01T06:01:05;8.70;99.90
31725;DHT22;18306;40.960;14.836;2023-03-01T06:03:32;8.70;99.90
31725;DHT22;18306;40.960;14.836;2023-03-01T06:06:00;8.80;99.90
31725;DHT22;18306;40.960;14.836;2023-03-01T06:08:27;9.00;99.90
31725;DHT22;18306;40.960;14.836;2023-03-01T06:10:54;9.20;99.90
31725;DHT22;18306;40.960;14.836;2023-03-01T06:13:23;9.30;99.90
31725;DHT22;18306;40.960;14.836;2023-03-01T06:15:51;9.50;99.90
31725;DHT22;18306;40.960;14.836;2023-03-01T06:18:18;9.60;99.90
31725;DHT22;18306;40.960;14.836;2023-03-01T06:20:53;9.70;99.90
31725;DHT22;18306;40.960;14.836;2023-03-01T06:23:20;9.80;99.90
31725;DHT22;18306;40.960;14.836;2023-03-01T06:25:48;9.80;99.90
31725;DHT22;18306;40.960;14.836;2023-03-01T06:28:15;9.80;99.90
31725;DHT22;18306;40.960;14.836;2023-03-01T06:30:43;9.50;99.90
31725;DHT22;18306;40.960;14.836;2023-03-01T06:33:10;9.40;99.90
31725;DHT22;18306;40.960;14.836;2023-03-01T06:35:37;9.30;99.90
31725;DHT22;18306;40.960;14.836;2023-03-01T06:38:05;9.10;99.90
31725;DHT22;18306;40.960;14.836;2023-03-01T06:40:32;9.10;99.90
31725;DHT22;18306;40.960;14.836;2023-03-01T06:43:03;9.10;99.90
31725;DHT22;18306;40.960;14.836;2023-03-01T06:45:31;9.20;99.90
31725;DHT22;18306;40.960;14.836;2023-03-01T06:48:06;9.40;99.90
31725;DHT22;18306;40.960;14.836;2023-03-01T06:50:38;9.60;99.90
31725;DHT22;18306;40.960;14.836;2023-03-01T06:53:05;9.90;99.90
31725;DHT22;18306;40.960;14.836;2023-03-01T06:55:33;10.10;99.90
31725;DHT22;18306;40.960;14.836;2023-03-01T06:58:01;10.20;99.90
31725;DHT22;18306;40.960;14.836;2023-03-01T07:00:30;10.30;99.90
31725;DHT22;18306;40.960;14.836;2023-03-01T07:03:01;10.40;99.90
31725;DHT22;18306;40.960;14.836;2023-03-01T07:05:30;10.50;99.90
31725;DHT22;18306;40.960;14.836;2023-03-01T07:07:57;10.70;99.90
31725;DHT22;18306;40.960;14.836;2023-03-01T07:10:25;10.80;99.90
31725;DHT22;18306;40.960;14.836;2023-03-01T07:12:59;11.00;99.90
31725;DHT22;18306;40.960;14.836;2023-03-01T07:15:27;11.10;99.90
31725;DHT22;18306;40.960;14.836;2023-03-01T07:18:00;11.10;99.90
31725;DHT22;18306;40.960;14.836;2023-03-01T07:20:27;11.30;99.90
31725;DHT22;18306;40.960;14.836;2023-03-01T07:22:55;11.50;99.90
31725;DHT22;18306;40.960;14.836;2023-03-01T07:25:25;11.80;99.90
31725;DHT22;18306;40.960;14.836;2023-03-01T07:27:53;12.30;99.90
31725;DHT22;18306;40.960;14.836;2023-03-01T07:30:21;13.00;99.90
31725;DHT22;18306;40.960;14.836;2023-03-01T07:32:49;13.40;99.90
31725;DHT22;18306;40.960;14.836;2023-03-01T07:35:16;13.90;99.90
31725;DHT22;18306;40.960;14.836;2023-03-01T07:37:44;14.50;99.90
31725;DHT22;18306;40.960;14.836;2023-03-01T07:40:12;15.10;99.90
31725;DHT22;18306;40.960;14.836;2023-03-01T07:42:40;15.40;99.90
31725;DHT22;18306;40.960;14.836;2023-03-01T07:45:08;15.90;99.90
31725;DHT22;18306;40.960;14.836;2023-03-01T07:47:35;16.20;99.90
31725;DHT22;18306;40.960;14.836;2023-03-01T07:50:04;16.30;99.90
31725;DHT22;18306;40.960;14.836;2023-03-01T07:52:32;16.50;99.90
31725;DHT22;18306;40.960;14.836;2023-03-01T07:55:00;16.90;99.90
31725;DHT22;18306;40.960;14.836;2023-03-01T07:57:27;17.50;99.90
31725;DHT22;18306;40.960;14.836;2023-03-01T07:59:55;18.20;99.90
31725;DHT22;18306;40.960;14.836;2023-03-01T08:02:23;19.10;99.90
31725;DHT22;18306;40.960;14.836;2023-03-01T08:04:50;19.50;98.40
31725;DHT22;18306;40.960;14.836;2023-03-01T08:07:18;19.90;98.40
31725;DHT22;18306;40.960;14.836;2023-03-01T08:09:46;19.20;98.00
31725;DHT22;18306;40.960;14.836;2023-03-01T08:12:14;19.00;98.50
31725;DHT22;18306;40.960;14.836;2023-03-01T08:14:44;18.40;98.70
31725;DHT22;18306;40.960;14.836;2023-03-01T08:17:13;17.30;99.40
31725;DHT22;18306;40.960;14.836;2023-03-01T08:19:42;16.40;99.90
31725;DHT22;18306;40.960;14.836;2023-03-01T08:22:09;15.70;99.90
31725;DHT22;18306;40.960;14.836;2023-03-01T08:24:37;15.10;99.90
31725;DHT22;18306;40.960;14.836;2023-03-01T08:27:05;14.60;99.90
31725;DHT22;18306;40.960;14.836;2023-03-01T08:29:33;14.20;99.90
31725;DHT22;18306;40.960;14.836;2023-03-01T08:32:00;14.20;99.90
31725;DHT22;18306;40.960;14.836;2023-03-01T08:34:28;14.20;99.90
31725;DHT22;18306;40.960;14.836;2023-03-01T08:36:56;14.10;99.90
31725;DHT22;18306;40.960;14.836;2023-03-01T08:39:24;13.80;99.90
31725;DHT22;18306;40.960;14.836;2023-03-01T08:41:52;13.70;99.90
31725;DHT22;18306;40.960;14.836;2023-03-01T08:44:22;13.40;99.90
31725;DHT22;18306;40.960;14.836;2023-03-01T08:46:50;13.50;99.90
31725;DHT22;18306;40.960;14.836;2023-03-01T08:49:20;13.50;99.90
31725;DHT22;18306;40.960;14.836;2023-03-01T08:51:48;13.60;99.90
31725;DHT22;18306;40.960;14.836;2023-03-01T08:54:18;13.30;99.90
31725;DHT22;18306;40.960;14.836;2023-03-01T08:56:47;13.60;99.90
31725;DHT22;18306;40.960;14.836;2023-03-01T08:59:16;13.50;99.90
31725;DHT22;18306;40.960;14.836;2023-03-01T09:01:45;13.70;99.90
31725;DHT22;18306;40.960;14.836;2023-03-01T09:04:14;13.70;99.90
31725;DHT22;18306;40.960;14.836;2023-03-01T09:06:42;13.80;99.90
31725;DHT22;18306;40.960;14.836;2023-03-01T09:09:17;13.80;99.90
31725;DHT22;18306;40.960;14.836;2023-03-01T09:11:45;14.00;99.90
31725;DHT22;18306;40.960;14.836;2023-03-01T09:14:13;14.10;99.90
31725;DHT22;18306;40.960;14.836;2023-03-01T09:16:41;14.20;99.90
31725;DHT22;18306;40.960;14.836;2023-03-01T09:19:09;14.40;99.90
31725;DHT22;18306;40.960;14.836;2023-03-01T09:21:37;14.40;99.90
31725;DHT22;18306;40.960;14.836;2023-03-01T09:24:06;14.40;99.90
31725;DHT22;18306;40.960;14.836;2023-03-01T09:26:38;14.40;99.90
31725;DHT22;18306;40.960;14.836;2023-03-01T09:29:05;14.40;99.90
31725;DHT22;18306;40.960;14.836;2023-03-01T09:31:33;14.50;99.90
31725;DHT22;18306;40.960;14.836;2023-03-01T09:34:00;14.50;99.90
31725;DHT22;18306;40.960;14.836;2023-03-01T09:36:28;14.40;99.90
31725;DHT22;18306;40.960;14.836;2023-03-01T09:38:57;14.50;99.90
31725;DHT22;18306;40.960;14.836;2023-03-01T09:42:01;14.60;99.90
31725;DHT22;18306;40.960;14.836;2023-03-01T09:44:43;14.80;99.90
31725;DHT22;18306;40.960;14.836;2023-03-01T09:47:19;14.90;99.90
31725;DHT22;18306;40.960;14.836;2023-03-01T09:50:19;14.80;99.40
31725;DHT22;18306;40.960;14.836;2023-03-01T09:55:31;14.70;99.80
31725;DHT22;18306;40.960;14.836;2023-03-01T10:06:31;14.30;99.60
31725;DHT22;18306;40.960;14.836;2023-03-01T10:09:05;14.50;99.60
31725;DHT22;18306;40.960;14.836;2023-03-01T10:11:46;14.40;99.50
31725;DHT22;18306;40.960;14.836;2023-03-01T10:17:27;14.30;99.00
31725;DHT22;18306;40.960;14.836;2023-03-01T10:20:22;14.20;99.70
31725;DHT22;18306;40.960;14.836;2023-03-01T10:22:53;14.20;99.60
31725;DHT22;18306;40.960;14.836;2023-03-01T10:25:44;14.00;99.70
31725;DHT22;18306;40.960;14.836;2023-03-01T10:28:44;14.00;99.90
31725;DHT22;18306;40.960;14.836;2023-03-01T10:34:16;14.30;99.90
31725;DHT22;18306;40.960;14.836;2023-03-01T10:36:50;14.40;99.90
31725;DHT22;18306;40.960;14.836;2023-03-01T10:39:23;14.10;99.60
31725;DHT22;18306;40.960;14.836;2023-03-01T10:42:04;14.20;99.90
31725;DHT22;18306;40.960;14.836;2023-03-01T10:44:44;14.20;99.90
31725;DHT22;18306;40.960;14.836;2023-03-01T10:47:24;14.30;99.90
31725;DHT22;18306;40.960;14.836;2023-03-01T10:50:17;14.30;99.90
31725;DHT22;18306;40.960;14.836;2023-03-01T10:52:58;14.10;99.90
31725;DHT22;18306;40.960;14.836;2023-03-01T10:58:16;14.10;99.90
31725;DHT22;18306;40.960;14.836;2023-03-01T11:00:55;14.00;99.90
31725;DHT22;18306;40.960;14.836;2023-03-01T11:03:30;13.70;99.90
31725;DHT22;18306;40.960;14.836;2023-03-01T11:08:49;13.60;99.90
31725;DHT22;18306;40.960;14.836;2023-03-01T11:11:34;13.60;99.90
31725;DHT22;18306;40.960;14.836;2023-03-01T11:14:17;13.60;99.90
31725;DHT22;18306;40.960;14.836;2023-03-01T11:17:00;13.60;99.90
31725;DHT22;18306;40.960;14.836;2023-03-01T11:19:29;13.80;99.90
31725;DHT22;18306;40.960;14.836;2023-03-01T11:22:07;13.90;99.90
31725;DHT22;18306;40.960;14.836;2023-03-01T11:24:51;14.10;99.90
31725;DHT22;18306;40.960;14.836;2023-03-01T11:27:27;14.40;99.90
31725;DHT22;18306;40.960;14.836;2023-03-01T11:30:06;14.50;99.90
31725;DHT22;18306;40.960;14.836;2023-03-01T11:32:42;14.60;99.30
31725;DHT22;18306;40.960;14.836;2023-03-01T11:35:25;14.40;99.10
31725;DHT22;18306;40.960;14.836;2023-03-01T11:38:24;14.60;98.80
31725;DHT22;18306;40.960;14.836;2023-03-01T11:41:15;14.90;98.70
31725;DHT22;18306;40.960;14.836;2023-03-01T11:44:00;14.90;97.60
31725;DHT22;18306;40.960;14.836;2023-03-01T11:51:55;14.70;98.50
31725;DHT22;18306;40.960;14.836;2023-03-01T12:00:07;14.80;99.00
31725;DHT22;18306;40.960;14.836;2023-03-01T12:03:14;14.80;99.00
31725;DHT22;18306;40.960;14.836;2023-03-01T12:05:56;14.70;99.10
31725;DHT22;18306;40.960;14.836;2023-03-01T12:17:26;15.20;98.50
31725;DHT22;18306;40.960;14.836;2023-03-01T12:20:12;15.10;98.60
31725;DHT22;18306;40.960;14.836;2023-03-01T12:26:21;15.20;98.50
31725;DHT22;18306;40.960;14.836;2023-03-01T12:32:09;15.60;98.60
31725;DHT22;18306;40.960;14.836;2023-03-01T12:34:49;15.70;97.10
31725;DHT22;18306;40.960;14.836;2023-03-01T12:37:33;15.90;97.40
31725;DHT22;18306;40.960;14.836;2023-03-01T12:49:20;16.20;97.20
31725;DHT22;18306;40.960;14.836;2023-03-01T12:52:04;16.30;97.40
31725;DHT22;18306;40.960;14.836;2023-03-01T12:54:45;16.50;97.20
31725;DHT22;18306;40.960;14.836;2023-03-01T12:57:25;16.50;97.20
31725;DHT22;18306;40.960;14.836;2023-03-01T13:02:54;16.60;96.50
31725;DHT22;18306;40.960;14.836;2023-03-01T13:08:25;16.20;96.90
31725;DHT22;18306;40.960;14.836;2023-03-01T13:11:00;16.30;96.40
31725;DHT22;18306;40.960;14.836;2023-03-01T13:13:29;16.10;96.70
31725;DHT22;18306;40.960;14.836;2023-03-01T13:16:57;16.10;96.90
31725;DHT22;18306;40.960;14.836;2023-03-01T13:19:26;16.10;97.00
31725;DHT22;18306;40.960;14.836;2023-03-01T13:21:59;16.10;97.20
31725;DHT22;18306;40.960;14.836;2023-03-01T13:24:41;16.20;96.40
31725;DHT22;18306;40.960;14.836;2023-03-01T13:27:11;16.10;96.20
31725;DHT22;18306;40.960;14.836;2023-03-01T13:29:57;16.30;95.90
31725;DHT22;18306;40.960;14.836;2023-03-01T13:32:36;16.40;95.60
31725;DHT22;18306;40.960;14.836;2023-03-01T13:37:43;16.60;95.70
31725;DHT22;18306;40.960;14.836;2023-03-01T13:42:54;16.40;95.20
31725;DHT22;18306;40.960;14.836;2023-03-01T13:45:40;16.40;95.30
31725;DHT22;18306;40.960;14.836;2023-03-01T13:48:16;16.20;95.30
31725;DHT22;18306;40.960;14.836;2023-03-01T13:50:50;16.00;95.30
31725;DHT22;18306;40.960;14.836;2023-03-01T13:53:19;16.00;96.00
31725;DHT22;18306;40.960;14.836;2023-03-01T13:55:51;16.00;95.50
31725;DHT22;18306;40.960;14.836;2023-03-01T13:58:32;16.20;95.50
31725;DHT22;18306;40.960;14.836;2023-03-01T14:01:06;16.00;95.00
31725;DHT22;18306;40.960;14.836;2023-03-01T14:03:41;16.00;94.40
31725;DHT22;18306;40.960;14.836;2023-03-01T14:06:15;15.90;93.70
31725;DHT22;18306;40.960;14.836;2023-03-01T14:08:46;16.00;93.60
31725;DHT22;18306;40.960;14.836;2023-03-01T14:11:33;16.00;93.90
31725;DHT22;18306;40.960;14.836;2023-03-01T14:19:35;15.80;94.00
31725;DHT22;18306;40.960;14.836;2023-03-01T14:22:22;15.80;94.40
31725;DHT22;18306;40.960;14.836;2023-03-01T14:24:56;15.80;93.50
31725;DHT22;18306;40.960;14.836;2023-03-01T14:27:27;15.80;93.60
31725;DHT22;18306;40.960;14.836;2023-03-01T14:32:52;15.30;93.70
31725;DHT22;18306;40.960;14.836;2023-03-01T14:35:26;15.30;94.10
31725;DHT22;18306;40.960;14.836;2023-03-01T14:37:54;15.40;94.10
31725;DHT22;18306;40.960;14.836;2023-03-01T14:40:40;15.50;93.90
31725;DHT22;18306;40.960;14.836;2023-03-01T14:43:15;15.40;94.50
31725;DHT22;18306;40.960;14.836;2023-03-01T14:45:50;15.30;94.50
31725;DHT22;18306;40.960;14.836;2023-03-01T14:48:18;15.30;94.90
31725;DHT22;18306;40.960;14.836;2023-03-01T14:50:46;15.20;95.10
31725;DHT22;18306;40.960;14.836;2023-03-01T14:53:21;15.20;95.10
31725;DHT22;18306;40.960;14.836;2023-03-01T14:56:01;15.10;95.00
31725;DHT22;18306;40.960;14.836;2023-03-01T14:58:34;15.20;95.10
31725;DHT22;18306;40.960;14.836;2023-03-01T15:01:03;15.10;95.30
31725;DHT22;18306;40.960;14.836;2023-03-01T15:03:37;15.00;95.80
31725;DHT22;18306;40.960;14.836;2023-03-01T15:06:07;15.00;95.60
31725;DHT22;18306;40.960;14.836;2023-03-01T15:08:36;15.00;95.50
31725;DHT22;18306;40.960;14.836;2023-03-01T15:11:16;14.80;95.00
31725;DHT22;18306;40.960;14.836;2023-03-01T15:13:49;15.00;95.10
31725;DHT22;18306;40.960;14.836;2023-03-01T15:16:23;14.90;95.80
31725;DHT22;18306;40.960;14.836;2023-03-01T15:19:00;14.90;96.00
31725;DHT22;18306;40.960;14.836;2023-03-01T15:21:37;14.80;95.50
31725;DHT22;18306;40.960;14.836;2023-03-01T15:27:00;14.80;94.90
31725;DHT22;18306;40.960;14.836;2023-03-01T15:29:36;14.80;94.80
31725;DHT22;18306;40.960;14.836;2023-03-01T15:32:36;14.80;94.80
31725;DHT22;18306;40.960;14.836;2023-03-01T15:35:44;14.70;94.80
31725;DHT22;18306;40.960;14.836;2023-03-01T15:38:36;14.70;95.40
31725;DHT22;18306;40.960;14.836;2023-03-01T15:41:26;14.80;95.70
31725;DHT22;18306;40.960;14.836;2023-03-01T15:43:54;14.90;95.60
31725;DHT22;18306;40.960;14.836;2023-03-01T15:46:27;15.00;95.20
31725;DHT22;18306;40.960;14.836;2023-03-01T15:52:09;14.70;96.20
31725;DHT22;18306;40.960;14.836;2023-03-01T15:54:39;14.80;96.10
31725;DHT22;18306;40.960;14.836;2023-03-01T15:57:13;14.80;96.30
31725;DHT22;18306;40.960;14.836;2023-03-01T15:59:43;14.50;96.20
31725;DHT22;18306;40.960;14.836;2023-03-01T16:02:11;14.40;96.50
31725;DHT22;18306;40.960;14.836;2023-03-01T16:04:42;14.40;96.60
31725;DHT22;18306;40.960;14.836;2023-03-01T16:07:09;14.60;96.60
31725;DHT22;18306;40.960;14.836;2023-03-01T16:09:37;14.60;96.80
31725;DHT22;18306;40.960;14.836;2023-03-01T16:12:08;14.40;96.70
31725;DHT22;18306;40.960;14.836;2023-03-01T16:14:45;14.50;97.20
31725;DHT22;18306;40.960;14.836;2023-03-01T16:17:20;14.30;97.20
31725;DHT22;18306;40.960;14.836;2023-03-01T16:19:54;14.10;97.60
31725;DHT22;18306;40.960;14.836;2023-03-01T16:22:22;14.00;98.00
31725;DHT22;18306;40.960;14.836;2023-03-01T16:24:52;14.00;98.20
31725;DHT22;18306;40.960;14.836;2023-03-01T16:27:19;13.80;98.30
31725;DHT22;18306;40.960;14.836;2023-03-01T16:29:47;13.80;98.70
31725;DHT22;18306;40.960;14.836;2023-03-01T16:32:15;13.80;99.00
31725;DHT22;18306;40.960;14.836;2023-03-01T16:34:42;13.80;98.90
31725;DHT22;18306;40.960;14.836;2023-03-01T16:37:09;13.90;99.20
31725;DHT22;18306;40.960;14.836;2023-03-01T16:39:38;13.90;99.60
31725;DHT22;18306;40.960;14.836;2023-03-01T16:42:05;14.00;99.40
31725;DHT22;18306;40.960;14.836;2023-03-01T16:44:33;14.20;99.10
31725;DHT22;18306;40.960;14.836;2023-03-01T16:47:00;14.30;99.20
31725;DHT22;18306;40.960;14.836;2023-03-01T16:49:28;14.40;99.20
31725;DHT22;18306;40.960;14.836;2023-03-01T16:51:56;14.30;99.10
31725;DHT22;18306;40.960;14.836;2023-03-01T16:54:23;14.30;98.90
31725;DHT22;18306;40.960;14.836;2023-03-01T16:56:53;14.20;99.20
31725;DHT22;18306;40.960;14.836;2023-03-01T16:59:21;14.20;99.40
31725;DHT22;18306;40.960;14.836;2023-03-01T17:01:50;14.20;99.40
31725;DHT22;18306;40.960;14.836;2023-03-01T17:04:17;14.20;99.30
31725;DHT22;18306;40.960;14.836;2023-03-01T17:06:48;13.90;99.50
31725;DHT22;18306;40.960;14.836;2023-03-01T17:09:15;13.90;99.70
31725;DHT22;18306;40.960;14.836;2023-03-01T17:11:45;13.80;99.70
31725;DHT22;18306;40.960;14.836;2023-03-01T17:14:13;13.80;99.80
31725;DHT22;18306;40.960;14.836;2023-03-01T17:16:45;13.60;99.90